sensor_id;sensor_type;location;lat;lon;timestamp;P1;durP1;ratioP1;P2;durP2;ratioP2
20734;SDS011;10528;52.124;5.196;2022-07-05T00:00:21;2.95;;;1.85;;
20734;SDS011;10528;52.124;5.196;2022-07-05T00:02:48;5.03;;;2.72;;
20734;SDS011;10528;52.124;5.196;2022-07-05T00:05:15;3.92;;;2.17;;
20734;SDS011;10528;52.124;5.196;2022-07-05T00:07:42;2.03;;;1.80;;
20734;SDS011;10528;52.124;5.196;2022-07-05T00:10:08;2.65;;;1.90;;
20734;SDS011;10528;52.124;5.196;2022-07-05T00:12:35;3.00;;;2.05;;
20734;SDS011;10528;52.124;5.196;2022-07-05T00:15:02;4.40;;;2.33;;
20734;SDS011;10528;52.124;5.196;2022-07-05T00:17:30;2.40;;;1.90;;
20734;SDS011;10528;52.124;5.196;2022-07-05T00:19:57;4.43;;;2.40;;
20734;SDS011;10528;52.124;5.196;2022-07-05T00:22:24;4.03;;;2.38;;
20734;SDS011;10528;52.124;5.196;2022-07-05T00:24:55;3.47;;;2.20;;
20734;SDS011;10528;52.124;5.196;2022-07-05T00:27:22;3.22;;;2.22;;
20734;SDS011;10528;52.124;5.196;2022-07-05T00:29:49;4.53;;;2.13;;
20734;SDS011;10528;52.124;5.196;2022-07-05T00:32:16;3.88;;;2.17;;
20734;SDS011;10528;52.124;5.196;2022-07-05T00:34:43;2.78;;;2.05;;
20734;SDS011;10528;52.124;5.196;2022-07-05T00:37:11;3.58;;;1.92;;
20734;SDS011;10528;52.124;5.196;2022-07-05T00:39:38;3.92;;;2.05;;
20734;SDS011;10528;52.124;5.196;2022-07-05T00:42:06;5.80;;;2.67;;
20734;SDS011;10528;52.124;5.196;2022-07-05T00:44:35;3.45;;;2.20;;
20734;SDS011;10528;52.124;5.196;2022-07-05T00:47:06;3.70;;;1.80;;
20734;SDS011;10528;52.124;5.196;2022-07-05T00:49:36;3.85;;;2.13;;
20734;SDS011;10528;52.124;5.196;2022-07-05T00:52:04;3.63;;;2.10;;
20734;SDS011;10528;52.124;5.196;2022-07-05T00:54:48;2.58;;;2.20;;
20734;SDS011;10528;52.124;5.196;2022-07-05T00:57:16;3.63;;;2.05;;
20734;SDS011;10528;52.124;5.196;2022-07-05T00:59:45;3.15;;;2.13;;
20734;SDS011;10528;52.124;5.196;2022-07-05T01:02:12;4.28;;;2.38;;
20734;SDS011;10528;52.124;5.196;2022-07-05T01:04:45;2.67;;;1.75;;
20734;SDS011;10528;52.124;5.196;2022-07-05T01:07:15;4.07;;;2.03;;
20734;SDS011;10528;52.124;5.196;2022-07-05T01:09:47;4.93;;;2.00;;
20734;SDS011;10528;52.124;5.196;2022-07-05T01:12:14;4.05;;;2.20;;
20734;SDS011;10528;52.124;5.196;2022-07-05T01:14:42;3.90;;;2.20;;
20734;SDS011;10528;52.124;5.196;2022-07-05T01:17:10;3.65;;;2.22;;
20734;SDS011;10528;52.124;5.196;2022-07-05T01:19:38;2.88;;;2.28;;
20734;SDS011;10528;52.124;5.196;2022-07-05T01:22:06;6.45;;;2.30;;
20734;SDS011;10528;52.124;5.196;2022-07-05T01:24:43;2.80;;;2.13;;
20734;SDS011;10528;52.124;5.196;2022-07-05T01:27:12;2.85;;;2.17;;
20734;SDS011;10528;52.124;5.196;2022-07-05T01:29:40;4.93;;;2.50;;
20734;SDS011;10528;52.124;5.196;2022-07-05T01:32:08;2.97;;;2.13;;
20734;SDS011;10528;52.124;5.196;2022-07-05T01:34:39;4.00;;;2.13;;
20734;SDS011;10528;52.124;5.196;2022-07-05T01:37:08;3.25;;;2.10;;
20734;SDS011;10528;52.124;5.196;2022-07-05T01:39:36;4.47;;;2.38;;
20734;SDS011;10528;52.124;5.196;2022-07-05T01:42:03;3.50;;;2.25;;
20734;SDS011;10528;52.124;5.196;2022-07-05T01:44:31;4.57;;;2.40;;
20734;SDS011;10528;52.124;5.196;2022-07-05T01:46:59;6.78;;;2.58;;
20734;SDS011;10528;52.124;5.196;2022-07-05T01:49:36;3.63;;;2.28;;
20734;SDS011;10528;52.124;5.196;2022-07-05T01:52:10;5.18;;;2.40;;
20734;SDS011;10528;52.124;5.196;2022-07-05T01:54:39;4.50;;;2.38;;
20734;SDS011;10528;52.124;5.196;2022-07-05T01:57:08;2.97;;;1.95;;
20734;SDS011;10528;52.124;5.196;2022-07-05T01:59:36;3.20;;;2.28;;
20734;SDS011;10528;52.124;5.196;2022-07-05T02:02:04;3.33;;;2.28;;
20734;SDS011;10528;52.124;5.196;2022-07-05T02:04:34;3.22;;;2.15;;
20734;SDS011;10528;52.124;5.196;2022-07-05T02:07:06;4.57;;;2.00;;
20734;SDS011;10528;52.124;5.196;2022-07-05T02:09:36;6.13;;;2.42;;
20734;SDS011;10528;52.124;5.196;2022-07-05T02:12:04;2.38;;;1.95;;
20734;SDS011;10528;52.124;5.196;2022-07-05T02:14:32;3.63;;;2.13;;
20734;SDS011;10528;52.124;5.196;2022-07-05T02:17:02;4.90;;;2.40;;
20734;SDS011;10528;52.124;5.196;2022-07-05T02:19:30;5.28;;;2.50;;
20734;SDS011;10528;52.124;5.196;2022-07-05T02:21:57;2.83;;;2.20;;
20734;SDS011;10528;52.124;5.196;2022-07-05T02:24:25;3.58;;;2.30;;
20734;SDS011;10528;52.124;5.196;2022-07-05T02:26:59;3.97;;;2.47;;
20734;SDS011;10528;52.124;5.196;2022-07-05T02:29:26;3.90;;;2.40;;
20734;SDS011;10528;52.124;5.196;2022-07-05T02:31:55;3.80;;;2.20;;
20734;SDS011;10528;52.124;5.196;2022-07-05T02:34:22;3.60;;;2.10;;
20734;SDS011;10528;52.124;5.196;2022-07-05T02:36:49;4.05;;;2.03;;
20734;SDS011;10528;52.124;5.196;2022-07-05T02:39:16;2.83;;;2.10;;
20734;SDS011;10528;52.124;5.196;2022-07-05T02:41:44;3.67;;;2.22;;
20734;SDS011;10528;52.124;5.196;2022-07-05T02:44:11;3.53;;;2.13;;
20734;SDS011;10528;52.124;5.196;2022-07-05T02:46:39;4.13;;;2.33;;
20734;SDS011;10528;52.124;5.196;2022-07-05T02:49:06;3.85;;;2.08;;
20734;SDS011;10528;52.124;5.196;2022-07-05T02:51:34;3.08;;;2.42;;
20734;SDS011;10528;52.124;5.196;2022-07-05T02:54:02;2.53;;;2.08;;
20734;SDS011;10528;52.124;5.196;2022-07-05T02:56:32;4.50;;;2.38;;
20734;SDS011;10528;52.124;5.196;2022-07-05T02:58:59;4.30;;;2.63;;
20734;SDS011;10528;52.124;5.196;2022-07-05T03:01:29;2.75;;;2.20;;
20734;SDS011;10528;52.124;5.196;2022-07-05T03:03:59;3.40;;;2.47;;
20734;SDS011;10528;52.124;5.196;2022-07-05T03:06:28;4.25;;;2.97;;
20734;SDS011;10528;52.124;5.196;2022-07-05T03:08:56;4.38;;;3.10;;
20734;SDS011;10528;52.124;5.196;2022-07-05T03:11:23;5.35;;;2.55;;
20734;SDS011;10528;52.124;5.196;2022-07-05T03:13:50;3.60;;;2.30;;
20734;SDS011;10528;52.124;5.196;2022-07-05T03:16:18;4.55;;;2.40;;
20734;SDS011;10528;52.124;5.196;2022-07-05T03:18:45;4.22;;;2.95;;
20734;SDS011;10528;52.124;5.196;2022-07-05T03:21:12;3.80;;;2.60;;
20734;SDS011;10528;52.124;5.196;2022-07-05T03:23:39;3.80;;;2.70;;
20734;SDS011;10528;52.124;5.196;2022-07-05T03:26:06;3.20;;;2.53;;
20734;SDS011;10528;52.124;5.196;2022-07-05T03:28:34;4.53;;;2.47;;
20734;SDS011;10528;52.124;5.196;2022-07-05T03:31:01;2.70;;;2.33;;
20734;SDS011;10528;52.124;5.196;2022-07-05T03:33:34;3.80;;;2.63;;
20734;SDS011;10528;52.124;5.196;2022-07-05T03:36:03;4.05;;;2.88;;
20734;SDS011;10528;52.124;5.196;2022-07-05T03:38:30;4.45;;;2.30;;
20734;SDS011;10528;52.124;5.196;2022-07-05T03:40:57;4.18;;;2.70;;
20734;SDS011;10528;52.124;5.196;2022-07-05T03:43:26;3.92;;;2.50;;
20734;SDS011;10528;52.124;5.196;2022-07-05T03:45:53;3.58;;;2.47;;
20734;SDS011;10528;52.124;5.196;2022-07-05T03:48:25;3.40;;;2.53;;
20734;SDS011;10528;52.124;5.196;2022-07-05T03:51:10;4.75;;;3.03;;
20734;SDS011;10528;52.124;5.196;2022-07-05T03:53:37;3.63;;;2.50;;
20734;SDS011;10528;52.124;5.196;2022-07-05T03:56:05;4.10;;;2.42;;
20734;SDS011;10528;52.124;5.196;2022-07-05T03:58:32;4.35;;;2.80;;
20734;SDS011;10528;52.124;5.196;2022-07-05T04:00:59;5.60;;;3.10;;
20734;SDS011;10528;52.124;5.196;2022-07-05T04:03:28;4.30;;;2.60;;
20734;SDS011;10528;52.124;5.196;2022-07-05T04:05:57;5.80;;;2.45;;
20734;SDS011;10528;52.124;5.196;2022-07-05T04:08:23;3.72;;;2.53;;
20734;SDS011;10528;52.124;5.196;2022-07-05T04:10:50;3.20;;;2.53;;
20734;SDS011;10528;52.124;5.196;2022-07-05T04:13:19;4.10;;;2.50;;
20734;SDS011;10528;52.124;5.196;2022-07-05T04:15:48;5.35;;;2.40;;
20734;SDS011;10528;52.124;5.196;2022-07-05T04:18:15;4.25;;;2.90;;
20734;SDS011;10528;52.124;5.196;2022-07-05T04:20:42;3.67;;;2.55;;
20734;SDS011;10528;52.124;5.196;2022-07-05T04:23:11;3.85;;;2.42;;
20734;SDS011;10528;52.124;5.196;2022-07-05T04:25:39;3.78;;;2.58;;
20734;SDS011;10528;52.124;5.196;2022-07-05T04:28:15;4.15;;;2.13;;
20734;SDS011;10528;52.124;5.196;2022-07-05T04:30:43;3.30;;;2.03;;
20734;SDS011;10528;52.124;5.196;2022-07-05T04:33:12;5.25;;;2.50;;
20734;SDS011;10528;52.124;5.196;2022-07-05T04:35:42;3.10;;;2.38;;
20734;SDS011;10528;52.124;5.196;2022-07-05T04:38:09;4.05;;;2.70;;
20734;SDS011;10528;52.124;5.196;2022-07-05T04:40:39;5.20;;;2.20;;
20734;SDS011;10528;52.124;5.196;2022-07-05T04:43:07;3.20;;;2.17;;
20734;SDS011;10528;52.124;5.196;2022-07-05T04:45:34;4.43;;;2.20;;
20734;SDS011;10528;52.124;5.196;2022-07-05T04:48:01;3.15;;;2.42;;
20734;SDS011;10528;52.124;5.196;2022-07-05T04:50:29;3.60;;;2.25;;
20734;SDS011;10528;52.124;5.196;2022-07-05T04:52:57;2.88;;;2.00;;
20734;SDS011;10528;52.124;5.196;2022-07-05T04:55:24;3.05;;;2.05;;
20734;SDS011;10528;52.124;5.196;2022-07-05T04:57:51;4.70;;;2.50;;
20734;SDS011;10528;52.124;5.196;2022-07-05T05:00:18;3.50;;;2.97;;
20734;SDS011;10528;52.124;5.196;2022-07-05T05:02:44;4.93;;;2.65;;
20734;SDS011;10528;52.124;5.196;2022-07-05T05:05:11;4.78;;;2.22;;
20734;SDS011;10528;52.124;5.196;2022-07-05T05:07:42;3.67;;;2.60;;
20734;SDS011;10528;52.124;5.196;2022-07-05T05:10:09;4.68;;;2.47;;
20734;SDS011;10528;52.124;5.196;2022-07-05T05:12:37;3.28;;;2.17;;
20734;SDS011;10528;52.124;5.196;2022-07-05T05:15:04;3.72;;;2.78;;
20734;SDS011;10528;52.124;5.196;2022-07-05T05:17:36;4.85;;;3.20;;
20734;SDS011;10528;52.124;5.196;2022-07-05T05:20:07;4.68;;;3.00;;
20734;SDS011;10528;52.124;5.196;2022-07-05T05:22:46;6.00;;;4.53;;
20734;SDS011;10528;52.124;5.196;2022-07-05T05:25:14;7.07;;;5.28;;
20734;SDS011;10528;52.124;5.196;2022-07-05T05:27:42;5.80;;;4.78;;
20734;SDS011;10528;52.124;5.196;2022-07-05T05:30:15;4.90;;;4.28;;
20734;SDS011;10528;52.124;5.196;2022-07-05T05:32:44;6.90;;;5.40;;
20734;SDS011;10528;52.124;5.196;2022-07-05T05:35:12;6.60;;;5.43;;
20734;SDS011;10528;52.124;5.196;2022-07-05T05:37:49;7.32;;;5.25;;
20734;SDS011;10528;52.124;5.196;2022-07-05T05:40:19;7.55;;;5.50;;
20734;SDS011;10528;52.124;5.196;2022-07-05T05:42:51;6.07;;;5.03;;
20734;SDS011;10528;52.124;5.196;2022-07-05T05:45:20;5.90;;;4.88;;
20734;SDS011;10528;52.124;5.196;2022-07-05T05:47:48;7.60;;;5.32;;
20734;SDS011;10528;52.124;5.196;2022-07-05T05:50:22;8.05;;;5.65;;
20734;SDS011;10528;52.124;5.196;2022-07-05T05:52:55;9.45;;;5.57;;
20734;SDS011;10528;52.124;5.196;2022-07-05T05:55:23;8.55;;;5.43;;
20734;SDS011;10528;52.124;5.196;2022-07-05T05:57:53;8.38;;;5.47;;
20734;SDS011;10528;52.124;5.196;2022-07-05T06:00:21;8.68;;;4.93;;
20734;SDS011;10528;52.124;5.196;2022-07-05T06:02:49;9.75;;;6.38;;
20734;SDS011;10528;52.124;5.196;2022-07-05T06:05:17;6.45;;;5.65;;
20734;SDS011;10528;52.124;5.196;2022-07-05T06:07:45;10.38;;;6.10;;
20734;SDS011;10528;52.124;5.196;2022-07-05T06:10:14;7.70;;;6.50;;
20734;SDS011;10528;52.124;5.196;2022-07-05T06:12:44;9.20;;;6.20;;
20734;SDS011;10528;52.124;5.196;2022-07-05T06:15:11;8.82;;;6.10;;
20734;SDS011;10528;52.124;5.196;2022-07-05T06:17:38;7.90;;;4.80;;
20734;SDS011;10528;52.124;5.196;2022-07-05T06:20:10;7.40;;;4.00;;
20734;SDS011;10528;52.124;5.196;2022-07-05T06:22:39;7.55;;;3.60;;
20734;SDS011;10528;52.124;5.196;2022-07-05T06:25:07;5.93;;;3.33;;
20734;SDS011;10528;52.124;5.196;2022-07-05T06:30:32;5.28;;;3.45;;
20734;SDS011;10528;52.124;5.196;2022-07-05T06:33:01;8.57;;;3.30;;
20734;SDS011;10528;52.124;5.196;2022-07-05T06:35:30;5.35;;;2.63;;
20734;SDS011;10528;52.124;5.196;2022-07-05T06:37:59;5.95;;;3.05;;
20734;SDS011;10528;52.124;5.196;2022-07-05T06:40:29;4.85;;;2.75;;
20734;SDS011;10528;52.124;5.196;2022-07-05T06:43:06;4.28;;;2.08;;
20734;SDS011;10528;52.124;5.196;2022-07-05T06:45:43;8.70;;;2.78;;
20734;SDS011;10528;52.124;5.196;2022-07-05T06:48:10;3.25;;;2.00;;
20734;SDS011;10528;52.124;5.196;2022-07-05T06:50:39;5.05;;;2.10;;
20734;SDS011;10528;52.124;5.196;2022-07-05T06:53:09;3.67;;;1.83;;
20734;SDS011;10528;52.124;5.196;2022-07-05T06:55:37;3.10;;;1.95;;
20734;SDS011;10528;52.124;5.196;2022-07-05T06:58:16;5.22;;;1.77;;
20734;SDS011;10528;52.124;5.196;2022-07-05T07:00:44;4.53;;;2.17;;
20734;SDS011;10528;52.124;5.196;2022-07-05T07:03:31;3.58;;;2.03;;
20734;SDS011;10528;52.124;5.196;2022-07-05T07:06:19;3.42;;;2.20;;
20734;SDS011;10528;52.124;5.196;2022-07-05T07:08:47;5.20;;;2.28;;
20734;SDS011;10528;52.124;5.196;2022-07-05T07:11:32;4.53;;;2.08;;
20734;SDS011;10528;52.124;5.196;2022-07-05T07:13:59;5.35;;;2.17;;
20734;SDS011;10528;52.124;5.196;2022-07-05T07:16:26;5.18;;;1.90;;
20734;SDS011;10528;52.124;5.196;2022-07-05T07:18:54;2.88;;;1.80;;
20734;SDS011;10528;52.124;5.196;2022-07-05T07:21:40;3.20;;;1.33;;
20734;SDS011;10528;52.124;5.196;2022-07-05T07:24:09;4.45;;;1.40;;
20734;SDS011;10528;52.124;5.196;2022-07-05T07:26:37;4.43;;;1.30;;
20734;SDS011;10528;52.124;5.196;2022-07-05T07:29:22;5.60;;;2.65;;
20734;SDS011;10528;52.124;5.196;2022-07-05T07:31:50;2.13;;;1.20;;
20734;SDS011;10528;52.124;5.196;2022-07-05T07:34:17;2.25;;;1.33;;
20734;SDS011;10528;52.124;5.196;2022-07-05T07:36:44;2.55;;;1.20;;
20734;SDS011;10528;52.124;5.196;2022-07-05T07:39:10;4.45;;;1.35;;
20734;SDS011;10528;52.124;5.196;2022-07-05T07:41:37;3.15;;;1.30;;
20734;SDS011;10528;52.124;5.196;2022-07-05T07:44:04;2.30;;;1.30;;
20734;SDS011;10528;52.124;5.196;2022-07-05T07:46:31;6.15;;;1.58;;
20734;SDS011;10528;52.124;5.196;2022-07-05T07:48:59;2.10;;;1.50;;
20734;SDS011;10528;52.124;5.196;2022-07-05T07:51:26;5.72;;;1.88;;
20734;SDS011;10528;52.124;5.196;2022-07-05T07:53:53;4.18;;;1.55;;
20734;SDS011;10528;52.124;5.196;2022-07-05T07:56:37;3.92;;;1.73;;
20734;SDS011;10528;52.124;5.196;2022-07-05T07:59:04;3.47;;;1.35;;
20734;SDS011;10528;52.124;5.196;2022-07-05T08:01:31;3.38;;;1.60;;
20734;SDS011;10528;52.124;5.196;2022-07-05T08:03:58;2.58;;;1.23;;
20734;SDS011;10528;52.124;5.196;2022-07-05T08:06:25;2.22;;;1.60;;
20734;SDS011;10528;52.124;5.196;2022-07-05T08:08:52;4.60;;;1.83;;
20734;SDS011;10528;52.124;5.196;2022-07-05T08:11:19;2.33;;;1.40;;
20734;SDS011;10528;52.124;5.196;2022-07-05T08:13:45;4.43;;;1.58;;
20734;SDS011;10528;52.124;5.196;2022-07-05T08:16:14;3.65;;;2.33;;
20734;SDS011;10528;52.124;5.196;2022-07-05T08:18:41;2.97;;;1.25;;
20734;SDS011;10528;52.124;5.196;2022-07-05T08:21:26;5.50;;;1.10;;
20734;SDS011;10528;52.124;5.196;2022-07-05T08:26:35;4.53;;;1.00;;
20734;SDS011;10528;52.124;5.196;2022-07-05T08:29:04;2.78;;;1.05;;
20734;SDS011;10528;52.124;5.196;2022-07-05T08:31:37;3.25;;;0.93;;
20734;SDS011;10528;52.124;5.196;2022-07-05T08:34:17;2.72;;;0.88;;
20734;SDS011;10528;52.124;5.196;2022-07-05T08:36:46;2.60;;;1.00;;
20734;SDS011;10528;52.124;5.196;2022-07-05T08:39:14;2.25;;;0.80;;
20734;SDS011;10528;52.124;5.196;2022-07-05T08:41:42;2.10;;;0.98;;
20734;SDS011;10528;52.124;5.196;2022-07-05T08:44:19;2.28;;;0.70;;
20734;SDS011;10528;52.124;5.196;2022-07-05T08:46:49;1.23;;;0.75;;
20734;SDS011;10528;52.124;5.196;2022-07-05T08:49:24;3.08;;;0.70;;
20734;SDS011;10528;52.124;5.196;2022-07-05T08:51:53;2.22;;;0.85;;
20734;SDS011;10528;52.124;5.196;2022-07-05T08:54:22;4.40;;;1.00;;
20734;SDS011;10528;52.124;5.196;2022-07-05T08:56:51;2.53;;;1.00;;
20734;SDS011;10528;52.124;5.196;2022-07-05T08:59:38;4.10;;;1.10;;
20734;SDS011;10528;52.124;5.196;2022-07-05T09:02:06;2.30;;;0.90;;
20734;SDS011;10528;52.124;5.196;2022-07-05T09:04:42;4.07;;;1.00;;
20734;SDS011;10528;52.124;5.196;2022-07-05T09:07:15;2.97;;;1.15;;
20734;SDS011;10528;52.124;5.196;2022-07-05T09:09:44;2.03;;;0.82;;
20734;SDS011;10528;52.124;5.196;2022-07-05T09:12:15;3.90;;;0.85;;
20734;SDS011;10528;52.124;5.196;2022-07-05T09:14:48;2.63;;;1.00;;
20734;SDS011;10528;52.124;5.196;2022-07-05T09:17:16;3.92;;;1.00;;
20734;SDS011;10528;52.124;5.196;2022-07-05T09:19:43;2.22;;;0.85;;
20734;SDS011;10528;52.124;5.196;2022-07-05T09:25:17;3.50;;;0.90;;
20734;SDS011;10528;52.124;5.196;2022-07-05T09:27:57;4.43;;;0.80;;
20734;SDS011;10528;52.124;5.196;2022-07-05T09:30:29;2.08;;;0.63;;
20734;SDS011;10528;52.124;5.196;2022-07-05T09:33:31;3.35;;;0.93;;
20734;SDS011;10528;52.124;5.196;2022-07-05T09:35:52;3.05;;;1.00;;
20734;SDS011;10528;52.124;5.196;2022-07-05T09:38:27;5.57;;;0.90;;
20734;SDS011;10528;52.124;5.196;2022-07-05T09:40:56;3.95;;;0.70;;
20734;SDS011;10528;52.124;5.196;2022-07-05T09:43:28;3.53;;;0.60;;
20734;SDS011;10528;52.124;5.196;2022-07-05T09:48:27;2.67;;;0.80;;
20734;SDS011;10528;52.124;5.196;2022-07-05T09:51:15;2.08;;;0.63;;
20734;SDS011;10528;52.124;5.196;2022-07-05T09:54:02;2.85;;;0.70;;
20734;SDS011;10528;52.124;5.196;2022-07-05T09:56:47;1.98;;;0.80;;
20734;SDS011;10528;52.124;5.196;2022-07-05T09:59:16;4.03;;;0.80;;
20734;SDS011;10528;52.124;5.196;2022-07-05T10:01:46;2.58;;;1.10;;
20734;SDS011;10528;52.124;5.196;2022-07-05T10:04:14;1.65;;;0.73;;
20734;SDS011;10528;52.124;5.196;2022-07-05T10:06:42;2.35;;;0.63;;
20734;SDS011;10528;52.124;5.196;2022-07-05T10:09:10;2.25;;;0.77;;
20734;SDS011;10528;52.124;5.196;2022-07-05T10:11:41;2.20;;;0.70;;
20734;SDS011;10528;52.124;5.196;2022-07-05T10:14:13;1.15;;;0.60;;
20734;SDS011;10528;52.124;5.196;2022-07-05T10:16:51;5.07;;;0.80;;
20734;SDS011;10528;52.124;5.196;2022-07-05T10:19:28;2.03;;;0.70;;
20734;SDS011;10528;52.124;5.196;2022-07-05T10:22:04;2.28;;;0.70;;
20734;SDS011;10528;52.124;5.196;2022-07-05T10:24:48;1.85;;;0.60;;
20734;SDS011;10528;52.124;5.196;2022-07-05T10:27:17;2.38;;;0.70;;
20734;SDS011;10528;52.124;5.196;2022-07-05T10:29:45;1.52;;;0.70;;
20734;SDS011;10528;52.124;5.196;2022-07-05T10:32:14;5.43;;;0.90;;
20734;SDS011;10528;52.124;5.196;2022-07-05T10:34:43;2.85;;;0.73;;
20734;SDS011;10528;52.124;5.196;2022-07-05T10:37:31;4.78;;;0.60;;
20734;SDS011;10528;52.124;5.196;2022-07-05T10:40:01;2.25;;;0.75;;
20734;SDS011;10528;52.124;5.196;2022-07-05T10:42:33;6.18;;;0.82;;
20734;SDS011;10528;52.124;5.196;2022-07-05T10:48:23;2.30;;;0.73;;
20734;SDS011;10528;52.124;5.196;2022-07-05T10:50:53;2.38;;;0.93;;
20734;SDS011;10528;52.124;5.196;2022-07-05T10:58:32;1.92;;;0.60;;
20734;SDS011;10528;52.124;5.196;2022-07-05T11:06:40;3.13;;;0.70;;
20734;SDS011;10528;52.124;5.196;2022-07-05T11:11:42;2.03;;;0.73;;
20734;SDS011;10528;52.124;5.196;2022-07-05T11:14:38;1.55;;;0.55;;
20734;SDS011;10528;52.124;5.196;2022-07-05T11:17:13;3.00;;;0.75;;
20734;SDS011;10528;52.124;5.196;2022-07-05T11:20:16;1.55;;;0.70;;
20734;SDS011;10528;52.124;5.196;2022-07-05T11:23:02;4.13;;;0.80;;
20734;SDS011;10528;52.124;5.196;2022-07-05T11:25:32;3.97;;;1.00;;
20734;SDS011;10528;52.124;5.196;2022-07-05T11:30:58;2.75;;;0.65;;
20734;SDS011;10528;52.124;5.196;2022-07-05T11:33:32;2.20;;;0.70;;
20734;SDS011;10528;52.124;5.196;2022-07-05T11:36:02;2.75;;;0.73;;
20734;SDS011;10528;52.124;5.196;2022-07-05T11:38:33;2.47;;;0.90;;
20734;SDS011;10528;52.124;5.196;2022-07-05T11:41:20;2.40;;;0.80;;
20734;SDS011;10528;52.124;5.196;2022-07-05T11:43:54;3.65;;;1.70;;
20734;SDS011;10528;52.124;5.196;2022-07-05T11:46:25;3.03;;;0.88;;
20734;SDS011;10528;52.124;5.196;2022-07-05T11:49:20;3.00;;;0.70;;
20734;SDS011;10528;52.124;5.196;2022-07-05T11:52:01;2.80;;;0.60;;
20734;SDS011;10528;52.124;5.196;2022-07-05T11:54:30;2.30;;;0.60;;
20734;SDS011;10528;52.124;5.196;2022-07-05T11:57:00;2.92;;;0.68;;
20734;SDS011;10528;52.124;5.196;2022-07-05T11:59:28;2.58;;;0.68;;
20734;SDS011;10528;52.124;5.196;2022-07-05T12:01:55;2.10;;;0.50;;
20734;SDS011;10528;52.124;5.196;2022-07-05T12:04:26;3.15;;;0.77;;
20734;SDS011;10528;52.124;5.196;2022-07-05T12:06:56;2.58;;;0.60;;
20734;SDS011;10528;52.124;5.196;2022-07-05T12:09:31;2.38;;;0.43;;
20734;SDS011;10528;52.124;5.196;2022-07-05T12:12:22;1.27;;;0.50;;
20734;SDS011;10528;52.124;5.196;2022-07-05T12:17:44;2.85;;;0.60;;
20734;SDS011;10528;52.124;5.196;2022-07-05T12:20:15;2.38;;;0.57;;
20734;SDS011;10528;52.124;5.196;2022-07-05T12:22:49;1.27;;;0.50;;
20734;SDS011;10528;52.124;5.196;2022-07-05T12:25:20;1.60;;;0.50;;
20734;SDS011;10528;52.124;5.196;2022-07-05T12:27:50;1.92;;;0.50;;
20734;SDS011;10528;52.124;5.196;2022-07-05T12:30:21;1.33;;;0.50;;
20734;SDS011;10528;52.124;5.196;2022-07-05T12:35:34;1.88;;;0.45;;
20734;SDS011;10528;52.124;5.196;2022-07-05T12:40:42;2.80;;;0.65;;
20734;SDS011;10528;52.124;5.196;2022-07-05T12:43:12;0.88;;;0.47;;
20734;SDS011;10528;52.124;5.196;2022-07-05T12:46:03;1.08;;;0.40;;
20734;SDS011;10528;52.124;5.196;2022-07-05T12:48:34;2.60;;;0.68;;
20734;SDS011;10528;52.124;5.196;2022-07-05T12:51:02;0.88;;;0.40;;
20734;SDS011;10528;52.124;5.196;2022-07-05T12:53:48;2.25;;;0.50;;
20734;SDS011;10528;52.124;5.196;2022-07-05T12:56:34;1.38;;;0.60;;
20734;SDS011;10528;52.124;5.196;2022-07-05T12:59:55;1.60;;;0.50;;
20734;SDS011;10528;52.124;5.196;2022-07-05T13:03:01;1.52;;;0.40;;
20734;SDS011;10528;52.124;5.196;2022-07-05T13:05:22;1.00;;;0.50;;
20734;SDS011;10528;52.124;5.196;2022-07-05T13:07:51;1.63;;;0.40;;
20734;SDS011;10528;52.124;5.196;2022-07-05T13:10:22;2.72;;;0.60;;
20734;SDS011;10528;52.124;5.196;2022-07-05T13:12:54;1.00;;;0.40;;
20734;SDS011;10528;52.124;5.196;2022-07-05T13:15:21;1.70;;;0.60;;
20734;SDS011;10528;52.124;5.196;2022-07-05T13:17:49;1.65;;;0.35;;
20734;SDS011;10528;52.124;5.196;2022-07-05T13:20:17;1.67;;;0.50;;
20734;SDS011;10528;52.124;5.196;2022-07-05T13:22:47;2.25;;;0.50;;
20734;SDS011;10528;52.124;5.196;2022-07-05T13:25:14;2.10;;;0.60;;
20734;SDS011;10528;52.124;5.196;2022-07-05T13:27:41;1.02;;;0.40;;
20734;SDS011;10528;52.124;5.196;2022-07-05T13:30:09;0.90;;;0.60;;
20734;SDS011;10528;52.124;5.196;2022-07-05T13:32:36;1.85;;;0.57;;
20734;SDS011;10528;52.124;5.196;2022-07-05T13:35:03;3.05;;;0.60;;
20734;SDS011;10528;52.124;5.196;2022-07-05T13:37:31;1.25;;;0.47;;
20734;SDS011;10528;52.124;5.196;2022-07-05T13:39:58;2.70;;;0.50;;
20734;SDS011;10528;52.124;5.196;2022-07-05T13:42:25;3.50;;;0.50;;
20734;SDS011;10528;52.124;5.196;2022-07-05T13:44:51;1.27;;;0.40;;
20734;SDS011;10528;52.124;5.196;2022-07-05T13:47:18;2.42;;;0.50;;
20734;SDS011;10528;52.124;5.196;2022-07-05T13:49:46;0.80;;;0.52;;
20734;SDS011;10528;52.124;5.196;2022-07-05T13:52:12;1.60;;;0.50;;
20734;SDS011;10528;52.124;5.196;2022-07-05T13:54:39;1.13;;;0.50;;
20734;SDS011;10528;52.124;5.196;2022-07-05T13:57:09;2.33;;;0.55;;
20734;SDS011;10528;52.124;5.196;2022-07-05T13:59:36;0.68;;;0.52;;
20734;SDS011;10528;52.124;5.196;2022-07-05T14:02:03;2.03;;;0.77;;
20734;SDS011;10528;52.124;5.196;2022-07-05T14:04:30;2.58;;;0.60;;
20734;SDS011;10528;52.124;5.196;2022-07-05T14:07:00;2.10;;;0.50;;
20734;SDS011;10528;52.124;5.196;2022-07-05T14:09:27;1.35;;;0.50;;
20734;SDS011;10528;52.124;5.196;2022-07-05T14:11:55;0.98;;;0.50;;
20734;SDS011;10528;52.124;5.196;2022-07-05T14:14:22;1.23;;;0.60;;
20734;SDS011;10528;52.124;5.196;2022-07-05T14:16:49;2.65;;;0.68;;
20734;SDS011;10528;52.124;5.196;2022-07-05T14:19:16;2.50;;;0.77;;
20734;SDS011;10528;52.124;5.196;2022-07-05T14:21:43;2.47;;;0.60;;
20734;SDS011;10528;52.124;5.196;2022-07-05T14:24:13;2.63;;;0.70;;
20734;SDS011;10528;52.124;5.196;2022-07-05T14:26:40;1.42;;;0.50;;
20734;SDS011;10528;52.124;5.196;2022-07-05T14:29:08;1.10;;;0.60;;
20734;SDS011;10528;52.124;5.196;2022-07-05T14:31:36;3.67;;;0.70;;
20734;SDS011;10528;52.124;5.196;2022-07-05T14:34:03;2.95;;;0.60;;
20734;SDS011;10528;52.124;5.196;2022-07-05T14:36:30;1.60;;;0.50;;
20734;SDS011;10528;52.124;5.196;2022-07-05T14:38:57;2.38;;;0.60;;
20734;SDS011;10528;52.124;5.196;2022-07-05T14:41:27;1.58;;;0.70;;
20734;SDS011;10528;52.124;5.196;2022-07-05T14:43:55;3.42;;;0.82;;
20734;SDS011;10528;52.124;5.196;2022-07-05T14:46:22;0.85;;;0.60;;
20734;SDS011;10528;52.124;5.196;2022-07-05T14:48:49;2.50;;;0.65;;
20734;SDS011;10528;52.124;5.196;2022-07-05T14:51:16;2.15;;;0.60;;
20734;SDS011;10528;52.124;5.196;2022-07-05T14:53:43;2.80;;;0.70;;
20734;SDS011;10528;52.124;5.196;2022-07-05T14:56:13;1.55;;;0.60;;
20734;SDS011;10528;52.124;5.196;2022-07-05T14:58:41;1.10;;;0.55;;
20734;SDS011;10528;52.124;5.196;2022-07-05T15:01:08;2.35;;;0.70;;
20734;SDS011;10528;52.124;5.196;2022-07-05T15:03:36;1.17;;;0.50;;
20734;SDS011;10528;52.124;5.196;2022-07-05T15:06:03;3.30;;;0.70;;
20734;SDS011;10528;52.124;5.196;2022-07-05T15:08:30;2.05;;;0.60;;
20734;SDS011;10528;52.124;5.196;2022-07-05T15:10:58;2.03;;;0.80;;
20734;SDS011;10528;52.124;5.196;2022-07-05T15:13:25;2.17;;;0.60;;
20734;SDS011;10528;52.124;5.196;2022-07-05T15:15:52;2.45;;;0.63;;
20734;SDS011;10528;52.124;5.196;2022-07-05T15:18:23;2.47;;;0.70;;
20734;SDS011;10528;52.124;5.196;2022-07-05T15:20:51;2.20;;;0.70;;
20734;SDS011;10528;52.124;5.196;2022-07-05T15:23:25;2.42;;;0.63;;
20734;SDS011;10528;52.124;5.196;2022-07-05T15:25:56;1.67;;;0.80;;
20734;SDS011;10528;52.124;5.196;2022-07-05T15:28:26;2.30;;;0.80;;
20734;SDS011;10528;52.124;5.196;2022-07-05T15:30:53;1.80;;;0.60;;
20734;SDS011;10528;52.124;5.196;2022-07-05T15:33:21;4.82;;;1.20;;
20734;SDS011;10528;52.124;5.196;2022-07-05T15:35:57;2.63;;;0.82;;
20734;SDS011;10528;52.124;5.196;2022-07-05T15:38:25;2.72;;;0.77;;
20734;SDS011;10528;52.124;5.196;2022-07-05T15:40:53;2.40;;;0.73;;
20734;SDS011;10528;52.124;5.196;2022-07-05T15:43:21;1.67;;;0.70;;
20734;SDS011;10528;52.124;5.196;2022-07-05T15:45:51;3.53;;;1.00;;